createdAt,value
2022-11-17T00:02:38.511Z,16.80
2022-11-17T00:09:24.186Z,16.77
2022-11-17T00:16:10.599Z,16.65
2022-11-17T00:22:58.588Z,16.46
2022-11-17T00:29:44.096Z,16.48
2022-11-17T00:36:30.087Z,16.29
2022-11-17T00:43:18.052Z,16.46
2022-11-17T00:50:05.654Z,16.51
2022-11-17T00:56:51.529Z,16.68
2022-11-17T01:03:40.662Z,16.72
2022-11-17T01:10:26.090Z,16.60
2022-11-17T01:17:11.649Z,16.74
2022-11-17T01:24:02.562Z,16.65
2022-11-17T01:30:48.190Z,16.69
2022-11-17T01:37:34.057Z,16.67
2022-11-17T01:44:57.464Z,16.63
2022-11-17T01:51:47.942Z,16.66
2022-11-17T01:58:38.249Z,16.57
2022-11-17T02:05:52.879Z,16.40
2022-11-17T02:12:40.039Z,16.30
2022-11-17T02:19:28.856Z,16.19
2022-11-17T02:27:12.253Z,16.06
2022-11-17T02:34:13.643Z,15.89
2022-11-17T02:41:08.102Z,15.91
2022-11-17T02:47:57.926Z,16.00
2022-11-17T02:54:46.058Z,15.98
2022-11-17T03:01:52.346Z,15.95
2022-11-17T03:08:50.964Z,15.94
2022-11-17T03:15:50.250Z,15.79
2022-11-17T03:22:46.766Z,15.91
2022-11-17T03:29:36.394Z,15.88
2022-11-17T03:36:31.604Z,15.85
2022-11-17T03:43:20.324Z,15.86
2022-11-17T04:03:57.068Z,15.86
2022-11-17T04:10:54.731Z,15.87
2022-11-17T04:17:40.551Z,15.81
2022-11-17T04:24:28.599Z,15.80
2022-11-17T04:31:17.359Z,15.82
2022-11-17T04:38:02.713Z,15.74
2022-11-17T04:44:50.688Z,15.71
2022-11-17T04:51:37.443Z,15.70
2022-11-17T04:58:22.871Z,15.75
2022-11-17T05:05:12.047Z,15.47
2022-11-17T05:12:12.389Z,15.20
2022-11-17T05:18:58.093Z,15.17
2022-11-17T05:25:46.136Z,15.15
2022-11-17T05:32:31.488Z,15.07
2022-11-17T05:39:16.996Z,15.05
2022-11-17T05:46:05.116Z,15.05
2022-11-17T05:52:51.341Z,15.06
2022-11-17T05:59:41.378Z,15.06
2022-11-17T06:06:29.597Z,15.18
2022-11-17T06:13:15.023Z,15.42
2022-11-17T06:20:05.204Z,15.45
2022-11-17T06:26:53.374Z,15.48
2022-11-17T06:33:41.337Z,15.30
2022-11-17T06:40:26.779Z,15.40
2022-11-17T06:47:14.785Z,15.09
2022-11-17T06:54:00.262Z,15.38
2022-11-17T07:00:45.855Z,15.39
2022-11-17T07:07:34.047Z,15.43
2022-11-17T07:14:20.422Z,15.42
2022-11-17T07:21:07.531Z,15.42
2022-11-17T07:28:02.080Z,15.36
2022-11-17T07:34:47.540Z,15.48
2022-11-17T07:41:33.062Z,15.51
2022-11-17T07:48:21.240Z,15.42
2022-11-17T07:55:07.926Z,15.53
2022-11-17T08:01:53.439Z,15.42
2022-11-17T08:08:42.174Z,15.62
2022-11-17T08:15:27.981Z,15.64
2022-11-17T08:22:14.480Z,15.58
2022-11-17T08:29:02.637Z,15.56
2022-11-17T08:35:48.113Z,15.65
2022-11-17T08:42:33.537Z,15.64
2022-11-17T08:49:21.711Z,15.53
2022-11-17T08:56:10.836Z,15.57
2022-11-17T09:02:56.228Z,15.54
2022-11-17T09:09:46.192Z,15.49
2022-11-17T09:16:31.701Z,15.65
2022-11-17T09:23:17.131Z,15.67
2022-11-17T09:30:05.455Z,15.74
2022-11-17T09:36:51.433Z,15.44
2022-11-17T09:43:41.521Z,16.07
2022-11-17T09:50:34.459Z,16.06
2022-11-17T09:57:28.739Z,16.03
2022-11-17T10:04:17.471Z,15.99
2022-11-17T10:11:26.616Z,15.87
2022-11-17T10:18:16.636Z,15.89
2022-11-17T10:25:02.157Z,15.99
2022-11-17T10:31:50.312Z,15.99
2022-11-17T10:38:37.497Z,16.01
2022-11-17T10:45:23.398Z,16.09
2022-11-17T10:52:21.303Z,16.04
2022-11-17T10:59:18.125Z,15.97
2022-11-17T11:06:21.392Z,16.33
2022-11-17T11:13:22.212Z,16.40
2022-11-17T11:20:10.198Z,16.52
2022-11-17T11:27:09.762Z,16.59
2022-11-17T11:34:10.406Z,16.59
2022-11-17T11:41:17.309Z,16.71
2022-11-17T11:48:24.009Z,16.83
2022-11-17T11:55:23.869Z,16.78
2022-11-17T12:02:26.100Z,16.75
2022-11-17T12:09:46.583Z,16.77
2022-11-17T12:16:40.177Z,16.71
2022-11-17T12:23:57.346Z,16.87
2022-11-17T12:30:58.446Z,16.91
2022-11-17T12:37:46.414Z,17.26
2022-11-17T12:45:03.138Z,17.40
2022-11-17T12:51:58.579Z,17.51
2022-11-17T12:59:02.926Z,17.49
2022-11-17T13:06:01.631Z,17.57
2022-11-17T13:13:13.012Z,17.70
2022-11-17T13:20:07.978Z,17.00
2022-11-17T13:27:02.976Z,16.78
2022-11-17T13:34:00.967Z,16.56
2022-11-17T13:40:50.141Z,16.51
2022-11-17T13:47:48.266Z,16.46
2022-11-17T13:54:34.348Z,16.61
2022-11-17T14:01:27.943Z,16.78
2022-11-17T14:08:28.751Z,17.08
2022-11-17T14:15:21.542Z,17.28
2022-11-17T14:22:31.769Z,17.46
2022-11-17T14:29:17.670Z,17.51
2022-11-17T14:36:04.756Z,17.35
2022-11-17T14:42:52.944Z,16.98
2022-11-17T14:49:38.367Z,16.70
2022-11-17T14:56:27.158Z,16.36
2022-11-17T15:03:15.172Z,15.88
2022-11-17T15:10:00.889Z,15.72
2022-11-17T15:16:46.329Z,15.66
2022-11-17T15:23:34.845Z,15.51
2022-11-17T15:30:21.067Z,15.33
2022-11-17T15:37:06.534Z,15.16
2022-11-17T15:43:54.919Z,15.09
2022-11-17T15:50:40.534Z,15.00
2022-11-17T15:57:25.989Z,14.83
2022-11-17T16:04:16.589Z,14.10
2022-11-17T16:11:02.805Z,14.71
2022-11-17T16:17:48.187Z,14.69
2022-11-17T16:24:36.314Z,14.79
2022-11-17T16:31:24.399Z,14.88
2022-11-17T16:38:10.145Z,14.87
2022-11-17T16:44:58.151Z,14.87
2022-11-17T16:51:44.361Z,15.04
2022-11-17T16:58:29.901Z,15.15
2022-11-17T17:05:18.278Z,15.47
2022-11-17T17:12:03.707Z,15.85
2022-11-17T17:18:49.540Z,15.79
2022-11-17T17:25:37.558Z,15.38
2022-11-17T17:32:23.004Z,15.09
2022-11-17T17:39:09.277Z,15.11
2022-11-17T17:46:03.143Z,14.64
2022-11-17T17:52:48.606Z,15.09
2022-11-17T17:59:33.954Z,14.98
2022-11-17T18:06:24.499Z,15.04
2022-11-17T18:13:10.961Z,15.17
2022-11-17T18:19:57.050Z,15.18
2022-11-17T18:26:45.053Z,15.28
2022-11-17T18:33:30.499Z,15.20
2022-11-17T18:40:16.967Z,15.22
2022-11-17T18:47:05.225Z,15.11
2022-11-17T18:53:51.677Z,15.17
2022-11-17T19:00:37.117Z,15.36
2022-11-17T19:07:25.689Z,15.50
2022-11-17T19:14:11.224Z,15.77
2022-11-17T19:20:56.653Z,15.85
2022-11-17T19:27:45.456Z,15.92
2022-11-17T19:34:31.428Z,16.08
2022-11-17T19:41:19.899Z,16.15
2022-11-17T19:48:09.247Z,16.15
2022-11-17T19:54:54.773Z,16.24
2022-11-17T20:01:40.737Z,16.27
2022-11-17T20:08:28.834Z,16.19
2022-11-17T20:15:32.969Z,16.19
2022-11-17T20:22:18.904Z,16.25
2022-11-17T20:29:06.920Z,16.29
2022-11-17T20:35:52.447Z,16.20
2022-11-17T20:42:38.051Z,16.11
2022-11-17T20:49:28.267Z,16.06
2022-11-17T20:56:16.486Z,16.13
2022-11-17T21:03:02.201Z,16.11
2022-11-17T21:09:50.270Z,16.14
2022-11-17T21:16:36.832Z,15.85
2022-11-17T21:23:22.331Z,15.66
2022-11-17T21:30:13.432Z,15.35
2022-11-17T21:36:58.858Z,15.17
2022-11-17T21:43:46.876Z,15.03
2022-11-17T21:50:34.886Z,14.86
2022-11-17T21:57:20.358Z,14.47
2022-11-17T22:04:06.666Z,14.16
2022-11-17T22:10:54.574Z,14.68
2022-11-17T22:17:39.991Z,14.78
2022-11-17T22:24:26.059Z,14.81
2022-11-17T22:31:14.219Z,14.77
2022-11-17T22:38:00.005Z,14.78
2022-11-17T22:44:48.340Z,14.68
2022-11-17T22:51:49.106Z,14.61
2022-11-17T22:58:35.278Z,14.60
2022-11-17T23:05:21.487Z,14.47
2022-11-17T23:12:10.258Z,14.53
2022-11-17T23:18:57.380Z,14.56
2022-11-17T23:25:43.194Z,14.53
2022-11-17T23:32:31.244Z,14.52
2022-11-17T23:39:16.971Z,14.52
2022-11-17T23:46:08.386Z,14.29
2022-11-17T23:52:56.442Z,14.24
2022-11-17T23:59:42.225Z,14.24
